sensor_id;sensor_type;location;lat;lon;timestamp;temperature;humidity
30244;DHT22;64022;53.652;9.792;2024-03-02T00:00:00;21.90;53.90
30244;DHT22;64022;53.652;9.792;2024-03-02T00:02:29;21.90;54.00
30244;DHT22;64022;53.652;9.792;2024-03-02T00:04:56;21.80;53.90
30244;DHT22;64022;53.652;9.792;2024-03-02T00:07:23;21.90;54.00
30244;DHT22;64022;53.652;9.792;2024-03-02T00:09:52;21.80;53.90
30244;DHT22;64022;53.652;9.792;2024-03-02T00:12:19;21.90;54.00
30244;DHT22;64022;53.652;9.792;2024-03-02T00:14:46;21.90;54.00
30244;DHT22;64022;53.652;9.792;2024-03-02T00:17:21;21.90;54.00
30244;DHT22;64022;53.652;9.792;2024-03-02T00:19:52;21.80;54.00
30244;DHT22;64022;53.652;9.792;2024-03-02T00:22:18;21.80;54.00
30244;DHT22;64022;53.652;9.792;2024-03-02T00:24:44;21.90;54.00
30244;DHT22;64022;53.652;9.792;2024-03-02T00:27:12;21.90;54.00
30244;DHT22;64022;53.652;9.792;2024-03-02T00:29:39;21.80;54.00
30244;DHT22;64022;53.652;9.792;2024-03-02T00:32:13;21.80;54.00
30244;DHT22;64022;53.652;9.792;2024-03-02T00:34:39;21.80;54.00
30244;DHT22;64022;53.652;9.792;2024-03-02T00:37:06;21.90;54.10
30244;DHT22;64022;53.652;9.792;2024-03-02T00:39:32;21.90;54.10
30244;DHT22;64022;53.652;9.792;2024-03-02T00:41:58;21.80;54.00
30244;DHT22;64022;53.652;9.792;2024-03-02T00:44:25;21.90;54.60
30244;DHT22;64022;53.652;9.792;2024-03-02T00:46:52;21.80;54.10
30244;DHT22;64022;53.652;9.792;2024-03-02T00:49:22;21.80;54.10
30244;DHT22;64022;53.652;9.792;2024-03-02T00:51:52;21.90;54.10
30244;DHT22;64022;53.652;9.792;2024-03-02T00:54:21;21.80;54.10
30244;DHT22;64022;53.652;9.792;2024-03-02T00:56:47;21.90;54.10
30244;DHT22;64022;53.652;9.792;2024-03-02T00:59:14;21.90;54.10
30244;DHT22;64022;53.652;9.792;2024-03-02T01:01:41;21.90;54.10
30244;DHT22;64022;53.652;9.792;2024-03-02T01:04:09;21.90;54.10
30244;DHT22;64022;53.652;9.792;2024-03-02T01:06:35;21.80;54.10
30244;DHT22;64022;53.652;9.792;2024-03-02T01:09:02;21.80;54.10
30244;DHT22;64022;53.652;9.792;2024-03-02T01:11:31;21.90;54.20
30244;DHT22;64022;53.652;9.792;2024-03-02T01:13:57;21.90;54.20
30244;DHT22;64022;53.652;9.792;2024-03-02T01:16:22;21.80;54.20
30244;DHT22;64022;53.652;9.792;2024-03-02T01:18:49;21.90;54.20
30244;DHT22;64022;53.652;9.792;2024-03-02T01:21:18;21.80;54.20
30244;DHT22;64022;53.652;9.792;2024-03-02T01:23:48;21.90;54.20
30244;DHT22;64022;53.652;9.792;2024-03-02T01:26:15;21.80;54.20
30244;DHT22;64022;53.652;9.792;2024-03-02T01:28:42;21.80;54.20
30244;DHT22;64022;53.652;9.792;2024-03-02T01:31:08;21.90;54.20
30244;DHT22;64022;53.652;9.792;2024-03-02T01:33:35;21.90;54.30
30244;DHT22;64022;53.652;9.792;2024-03-02T01:36:01;21.90;54.30
30244;DHT22;64022;53.652;9.792;2024-03-02T01:38:29;21.90;54.30
30244;DHT22;64022;53.652;9.792;2024-03-02T01:40:55;21.90;54.30
30244;DHT22;64022;53.652;9.792;2024-03-02T01:43:25;21.90;54.30
30244;DHT22;64022;53.652;9.792;2024-03-02T01:45:52;21.90;54.30
30244;DHT22;64022;53.652;9.792;2024-03-02T01:48:22;21.90;54.30
30244;DHT22;64022;53.652;9.792;2024-03-02T01:50:49;21.90;54.30
30244;DHT22;64022;53.652;9.792;2024-03-02T01:53:15;21.90;54.30
30244;DHT22;64022;53.652;9.792;2024-03-02T01:55:44;21.90;54.30
30244;DHT22;64022;53.652;9.792;2024-03-02T01:58:11;21.90;54.30
30244;DHT22;64022;53.652;9.792;2024-03-02T02:00:37;21.90;54.30
30244;DHT22;64022;53.652;9.792;2024-03-02T02:03:03;21.90;54.30
30244;DHT22;64022;53.652;9.792;2024-03-02T02:05:29;21.90;54.40
30244;DHT22;64022;53.652;9.792;2024-03-02T02:07:55;21.90;54.30
30244;DHT22;64022;53.652;9.792;2024-03-02T02:10:25;21.90;54.40
30244;DHT22;64022;53.652;9.792;2024-03-02T02:12:52;21.90;54.40
30244;DHT22;64022;53.652;9.792;2024-03-02T02:15:28;21.90;54.40
30244;DHT22;64022;53.652;9.792;2024-03-02T02:17:56;21.90;54.40
30244;DHT22;64022;53.652;9.792;2024-03-02T02:20:23;21.90;54.40
30244;DHT22;64022;53.652;9.792;2024-03-02T02:23:01;21.90;54.40
30244;DHT22;64022;53.652;9.792;2024-03-02T02:25:30;21.90;54.90
30244;DHT22;64022;53.652;9.792;2024-03-02T02:27:57;21.90;54.40
30244;DHT22;64022;53.652;9.792;2024-03-02T02:30:25;21.90;54.40
30244;DHT22;64022;53.652;9.792;2024-03-02T02:32:51;21.90;54.40
30244;DHT22;64022;53.652;9.792;2024-03-02T02:35:18;21.90;54.40
30244;DHT22;64022;53.652;9.792;2024-03-02T02:37:53;21.90;54.40
30244;DHT22;64022;53.652;9.792;2024-03-02T02:40:19;21.90;54.40
30244;DHT22;64022;53.652;9.792;2024-03-02T02:42:46;21.90;54.40
30244;DHT22;64022;53.652;9.792;2024-03-02T02:45:12;21.90;54.40
30244;DHT22;64022;53.652;9.792;2024-03-02T02:47:40;21.90;54.40
30244;DHT22;64022;53.652;9.792;2024-03-02T02:50:07;22.00;54.50
30244;DHT22;64022;53.652;9.792;2024-03-02T02:52:36;21.90;54.40
30244;DHT22;64022;53.652;9.792;2024-03-02T02:55:07;21.90;54.50
30244;DHT22;64022;53.652;9.792;2024-03-02T02:57:34;21.90;54.40
30244;DHT22;64022;53.652;9.792;2024-03-02T03:00:09;21.90;54.40
30244;DHT22;64022;53.652;9.792;2024-03-02T03:02:38;21.90;54.50
30244;DHT22;64022;53.652;9.792;2024-03-02T03:05:05;21.90;54.50
30244;DHT22;64022;53.652;9.792;2024-03-02T03:07:32;21.90;54.50
30244;DHT22;64022;53.652;9.792;2024-03-02T03:09:59;21.90;54.50
30244;DHT22;64022;53.652;9.792;2024-03-02T03:12:25;21.90;54.50
30244;DHT22;64022;53.652;9.792;2024-03-02T03:14:51;21.90;54.50
30244;DHT22;64022;53.652;9.792;2024-03-02T03:17:18;21.90;54.50
30244;DHT22;64022;53.652;9.792;2024-03-02T03:19:46;21.90;55.00
30244;DHT22;64022;53.652;9.792;2024-03-02T03:22:15;21.90;54.50
30244;DHT22;64022;53.652;9.792;2024-03-02T03:24:41;21.90;54.50
30244;DHT22;64022;53.652;9.792;2024-03-02T03:27:07;21.90;54.50
30244;DHT22;64022;53.652;9.792;2024-03-02T03:29:36;21.90;54.50
30244;DHT22;64022;53.652;9.792;2024-03-02T03:32:03;22.00;54.60
30244;DHT22;64022;53.652;9.792;2024-03-02T03:34:33;21.90;54.50
30244;DHT22;64022;53.652;9.792;2024-03-02T03:37:02;21.90;54.50
30244;DHT22;64022;53.652;9.792;2024-03-02T03:39:28;21.90;54.50
30244;DHT22;64022;53.652;9.792;2024-03-02T03:41:54;22.00;54.60
30244;DHT22;64022;53.652;9.792;2024-03-02T03:44:21;21.90;54.50
30244;DHT22;64022;53.652;9.792;2024-03-02T03:46:47;21.90;54.50
30244;DHT22;64022;53.652;9.792;2024-03-02T03:49:14;21.90;54.50
30244;DHT22;64022;53.652;9.792;2024-03-02T03:51:41;21.90;54.50
30244;DHT22;64022;53.652;9.792;2024-03-02T03:54:07;21.90;54.60
30244;DHT22;64022;53.652;9.792;2024-03-02T03:56:35;21.90;54.50
30244;DHT22;64022;53.652;9.792;2024-03-02T03:59:03;21.90;54.50
30244;DHT22;64022;53.652;9.792;2024-03-02T04:01:30;21.90;54.50
30244;DHT22;64022;53.652;9.792;2024-03-02T04:03:59;22.00;54.60
30244;DHT22;64022;53.652;9.792;2024-03-02T04:06:26;21.90;54.50
30244;DHT22;64022;53.652;9.792;2024-03-02T04:08:54;21.90;54.50
30244;DHT22;64022;53.652;9.792;2024-03-02T04:11:21;22.00;54.60
30244;DHT22;64022;53.652;9.792;2024-03-02T04:13:49;21.90;54.60
30244;DHT22;64022;53.652;9.792;2024-03-02T04:16:16;21.90;54.50
30244;DHT22;64022;53.652;9.792;2024-03-02T04:18:43;21.90;54.60
30244;DHT22;64022;53.652;9.792;2024-03-02T04:21:09;21.90;54.60
30244;DHT22;64022;53.652;9.792;2024-03-02T04:23:35;21.90;54.60
30244;DHT22;64022;53.652;9.792;2024-03-02T04:26:02;22.00;54.60
30244;DHT22;64022;53.652;9.792;2024-03-02T04:28:29;21.90;55.10
30244;DHT22;64022;53.652;9.792;2024-03-02T04:30:55;21.90;54.60
30244;DHT22;64022;53.652;9.792;2024-03-02T04:33:23;21.90;54.60
30244;DHT22;64022;53.652;9.792;2024-03-02T04:35:49;21.90;54.60
30244;DHT22;64022;53.652;9.792;2024-03-02T04:38:16;21.90;54.60
30244;DHT22;64022;53.652;9.792;2024-03-02T04:40:42;21.90;54.60
30244;DHT22;64022;53.652;9.792;2024-03-02T04:43:08;21.90;54.60
30244;DHT22;64022;53.652;9.792;2024-03-02T04:45:37;21.90;54.60
30244;DHT22;64022;53.652;9.792;2024-03-02T04:48:05;21.90;54.60
30244;DHT22;64022;53.652;9.792;2024-03-02T04:50:32;21.90;54.60
30244;DHT22;64022;53.652;9.792;2024-03-02T04:53:04;21.90;54.60
30244;DHT22;64022;53.652;9.792;2024-03-02T04:55:34;21.90;54.60
30244;DHT22;64022;53.652;9.792;2024-03-02T04:58:00;21.90;54.60
30244;DHT22;64022;53.652;9.792;2024-03-02T05:00:28;21.90;54.60
30244;DHT22;64022;53.652;9.792;2024-03-02T05:03:00;21.90;54.60
30244;DHT22;64022;53.652;9.792;2024-03-02T05:05:28;21.90;54.60
30244;DHT22;64022;53.652;9.792;2024-03-02T05:07:54;21.90;54.60
30244;DHT22;64022;53.652;9.792;2024-03-02T05:10:22;21.90;54.60
30244;DHT22;64022;53.652;9.792;2024-03-02T05:12:48;21.90;54.60
30244;DHT22;64022;53.652;9.792;2024-03-02T05:15:23;21.90;54.60
30244;DHT22;64022;53.652;9.792;2024-03-02T05:17:50;21.90;54.60
30244;DHT22;64022;53.652;9.792;2024-03-02T05:20:17;21.90;54.60
30244;DHT22;64022;53.652;9.792;2024-03-02T05:22:43;21.90;54.60
30244;DHT22;64022;53.652;9.792;2024-03-02T05:25:10;21.90;54.60
30244;DHT22;64022;53.652;9.792;2024-03-02T05:27:36;21.90;54.60
30244;DHT22;64022;53.652;9.792;2024-03-02T05:30:03;21.90;54.70
30244;DHT22;64022;53.652;9.792;2024-03-02T05:32:34;21.90;54.70
30244;DHT22;64022;53.652;9.792;2024-03-02T05:35:00;21.90;54.60
30244;DHT22;64022;53.652;9.792;2024-03-02T05:37:27;21.90;54.70
30244;DHT22;64022;53.652;9.792;2024-03-02T05:39:53;21.90;54.60
30244;DHT22;64022;53.652;9.792;2024-03-02T05:42:20;21.90;54.60
30244;DHT22;64022;53.652;9.792;2024-03-02T05:44:46;21.90;54.60
30244;DHT22;64022;53.652;9.792;2024-03-02T05:47:13;21.90;54.70
30244;DHT22;64022;53.652;9.792;2024-03-02T05:49:41;21.90;54.70
30244;DHT22;64022;53.652;9.792;2024-03-02T05:52:07;21.90;54.60
30244;DHT22;64022;53.652;9.792;2024-03-02T05:54:40;21.90;54.70
30244;DHT22;64022;53.652;9.792;2024-03-02T05:57:06;21.90;54.70
30244;DHT22;64022;53.652;9.792;2024-03-02T06:00:06;21.90;54.70
30244;DHT22;64022;53.652;9.792;2024-03-02T06:02:34;21.90;54.70
30244;DHT22;64022;53.652;9.792;2024-03-02T06:05:03;22.00;54.70
30244;DHT22;64022;53.652;9.792;2024-03-02T06:07:30;22.00;54.70
30244;DHT22;64022;53.652;9.792;2024-03-02T06:09:57;22.00;54.70
30244;DHT22;64022;53.652;9.792;2024-03-02T06:12:23;22.00;54.70
30244;DHT22;64022;53.652;9.792;2024-03-02T06:14:50;22.00;54.80
30244;DHT22;64022;53.652;9.792;2024-03-02T06:17:17;22.00;54.70
30244;DHT22;64022;53.652;9.792;2024-03-02T06:19:44;22.00;54.80
30244;DHT22;64022;53.652;9.792;2024-03-02T06:22:10;22.00;54.70
30244;DHT22;64022;53.652;9.792;2024-03-02T06:24:37;21.90;54.70
30244;DHT22;64022;53.652;9.792;2024-03-02T06:27:06;21.90;54.70
30244;DHT22;64022;53.652;9.792;2024-03-02T06:29:33;22.00;54.70
30244;DHT22;64022;53.652;9.792;2024-03-02T06:31:59;21.90;54.70
30244;DHT22;64022;53.652;9.792;2024-03-02T06:34:27;22.00;54.70
30244;DHT22;64022;53.652;9.792;2024-03-02T06:36:54;21.90;54.70
30244;DHT22;64022;53.652;9.792;2024-03-02T06:39:21;21.90;54.70
30244;DHT22;64022;53.652;9.792;2024-03-02T06:41:47;21.90;54.70
30244;DHT22;64022;53.652;9.792;2024-03-02T06:44:14;21.90;54.70
30244;DHT22;64022;53.652;9.792;2024-03-02T06:46:40;21.90;54.70
30244;DHT22;64022;53.652;9.792;2024-03-02T06:49:07;22.00;54.80
30244;DHT22;64022;53.652;9.792;2024-03-02T06:51:35;21.90;55.30
30244;DHT22;64022;53.652;9.792;2024-03-02T06:54:00;21.90;54.80
30244;DHT22;64022;53.652;9.792;2024-03-02T06:56:27;21.90;54.80
30244;DHT22;64022;53.652;9.792;2024-03-02T06:58:52;22.00;54.80
30244;DHT22;64022;53.652;9.792;2024-03-02T07:01:19;22.00;54.80
30244;DHT22;64022;53.652;9.792;2024-03-02T07:03:50;21.90;54.80
30244;DHT22;64022;53.652;9.792;2024-03-02T07:06:17;21.90;54.80
30244;DHT22;64022;53.652;9.792;2024-03-02T07:08:43;22.00;54.80
30244;DHT22;64022;53.652;9.792;2024-03-02T07:11:10;21.90;54.80
30244;DHT22;64022;53.652;9.792;2024-03-02T07:13:35;22.00;54.80
30244;DHT22;64022;53.652;9.792;2024-03-02T07:16:02;21.90;54.80
30244;DHT22;64022;53.652;9.792;2024-03-02T07:18:28;22.00;54.80
30244;DHT22;64022;53.652;9.792;2024-03-02T07:20:55;21.90;54.80
30244;DHT22;64022;53.652;9.792;2024-03-02T07:23:29;21.90;54.80
30244;DHT22;64022;53.652;9.792;2024-03-02T07:25:55;22.00;54.90
30244;DHT22;64022;53.652;9.792;2024-03-02T07:28:23;22.00;54.80
30244;DHT22;64022;53.652;9.792;2024-03-02T07:30:59;22.00;54.80
30244;DHT22;64022;53.652;9.792;2024-03-02T07:33:25;21.90;54.80
30244;DHT22;64022;53.652;9.792;2024-03-02T07:35:54;22.00;54.90
30244;DHT22;64022;53.652;9.792;2024-03-02T07:38:21;21.90;54.80
30244;DHT22;64022;53.652;9.792;2024-03-02T07:40:48;22.00;54.90
30244;DHT22;64022;53.652;9.792;2024-03-02T07:43:17;22.00;54.90
30244;DHT22;64022;53.652;9.792;2024-03-02T07:45:46;22.00;54.90
30244;DHT22;64022;53.652;9.792;2024-03-02T07:48:12;22.00;54.90
30244;DHT22;64022;53.652;9.792;2024-03-02T07:50:39;22.00;54.90
30244;DHT22;64022;53.652;9.792;2024-03-02T07:53:08;22.00;54.90
30244;DHT22;64022;53.652;9.792;2024-03-02T07:55:34;22.00;54.90
30244;DHT22;64022;53.652;9.792;2024-03-02T07:58:00;22.00;54.90
30244;DHT22;64022;53.652;9.792;2024-03-02T08:00:28;22.00;54.90
30244;DHT22;64022;53.652;9.792;2024-03-02T08:02:56;22.00;54.90
30244;DHT22;64022;53.652;9.792;2024-03-02T08:05:24;22.00;54.90
30244;DHT22;64022;53.652;9.792;2024-03-02T08:07:53;22.00;54.90
30244;DHT22;64022;53.652;9.792;2024-03-02T08:10:19;22.00;54.90
30244;DHT22;64022;53.652;9.792;2024-03-02T08:12:47;22.00;54.90
30244;DHT22;64022;53.652;9.792;2024-03-02T08:15:13;22.10;55.00
30244;DHT22;64022;53.652;9.792;2024-03-02T08:17:42;22.10;55.00
30244;DHT22;64022;53.652;9.792;2024-03-02T08:20:14;22.00;54.90
30244;DHT22;64022;53.652;9.792;2024-03-02T08:22:40;22.00;53.90
30244;DHT22;64022;53.652;9.792;2024-03-02T08:25:06;21.80;52.50
30244;DHT22;64022;53.652;9.792;2024-03-02T08:27:33;21.70;52.10
30244;DHT22;64022;53.652;9.792;2024-03-02T08:30:00;21.60;52.50
30244;DHT22;64022;53.652;9.792;2024-03-02T08:32:27;21.60;52.80
30244;DHT22;64022;53.652;9.792;2024-03-02T08:34:56;21.60;53.00
30244;DHT22;64022;53.652;9.792;2024-03-02T08:37:22;21.70;53.20
30244;DHT22;64022;53.652;9.792;2024-03-02T08:39:48;21.70;53.30
30244;DHT22;64022;53.652;9.792;2024-03-02T08:42:14;21.70;53.30
30244;DHT22;64022;53.652;9.792;2024-03-02T08:44:40;21.80;53.40
30244;DHT22;64022;53.652;9.792;2024-03-02T08:47:08;21.80;53.50
30244;DHT22;64022;53.652;9.792;2024-03-02T08:49:36;21.80;53.50
30244;DHT22;64022;53.652;9.792;2024-03-02T08:52:02;21.90;53.70
30244;DHT22;64022;53.652;9.792;2024-03-02T08:54:31;21.90;53.70
30244;DHT22;64022;53.652;9.792;2024-03-02T08:56:58;21.90;53.70
30244;DHT22;64022;53.652;9.792;2024-03-02T08:59:24;21.90;53.70
30244;DHT22;64022;53.652;9.792;2024-03-02T09:01:50;21.90;53.80
30244;DHT22;64022;53.652;9.792;2024-03-02T09:04:17;22.00;53.80
30244;DHT22;64022;53.652;9.792;2024-03-02T09:06:42;22.00;53.80
30244;DHT22;64022;53.652;9.792;2024-03-02T09:09:09;21.90;53.80
30244;DHT22;64022;53.652;9.792;2024-03-02T09:11:37;22.00;53.90
30244;DHT22;64022;53.652;9.792;2024-03-02T09:14:03;22.00;53.90
30244;DHT22;64022;53.652;9.792;2024-03-02T09:16:30;22.00;54.00
30244;DHT22;64022;53.652;9.792;2024-03-02T09:18:57;22.00;54.00
30244;DHT22;64022;53.652;9.792;2024-03-02T09:21:24;22.00;54.00
30244;DHT22;64022;53.652;9.792;2024-03-02T09:23:50;22.00;54.00
30244;DHT22;64022;53.652;9.792;2024-03-02T09:26:18;22.10;54.10
30244;DHT22;64022;53.652;9.792;2024-03-02T09:28:46;22.10;54.10
30244;DHT22;64022;53.652;9.792;2024-03-02T09:31:12;22.10;54.10
30244;DHT22;64022;53.652;9.792;2024-03-02T09:33:38;22.10;54.20
30244;DHT22;64022;53.652;9.792;2024-03-02T09:36:05;22.10;54.20
30244;DHT22;64022;53.652;9.792;2024-03-02T09:38:34;22.10;54.20
30244;DHT22;64022;53.652;9.792;2024-03-02T09:41:00;22.10;54.20
30244;DHT22;64022;53.652;9.792;2024-03-02T09:43:27;22.10;54.20
30244;DHT22;64022;53.652;9.792;2024-03-02T09:45:56;22.10;54.20
30244;DHT22;64022;53.652;9.792;2024-03-02T09:48:22;22.10;54.30
30244;DHT22;64022;53.652;9.792;2024-03-02T09:50:50;22.10;54.30
30244;DHT22;64022;53.652;9.792;2024-03-02T09:53:16;22.10;54.30
30244;DHT22;64022;53.652;9.792;2024-03-02T09:55:46;22.10;53.80
30244;DHT22;64022;53.652;9.792;2024-03-02T09:58:13;22.10;53.10
30244;DHT22;64022;53.652;9.792;2024-03-02T10:00:39;21.90;52.20
30244;DHT22;64022;53.652;9.792;2024-03-02T10:03:05;21.80;51.40
30244;DHT22;64022;53.652;9.792;2024-03-02T10:05:37;21.70;51.00
30244;DHT22;64022;53.652;9.792;2024-03-02T10:08:04;21.60;51.20
30244;DHT22;64022;53.652;9.792;2024-03-02T10:10:36;21.60;51.50
30244;DHT22;64022;53.652;9.792;2024-03-02T10:13:07;21.60;51.80
30244;DHT22;64022;53.652;9.792;2024-03-02T10:15:33;21.60;51.90
30244;DHT22;64022;53.652;9.792;2024-03-02T10:18:00;21.60;52.00
30244;DHT22;64022;53.652;9.792;2024-03-02T10:20:27;21.70;52.10
30244;DHT22;64022;53.652;9.792;2024-03-02T10:22:58;21.70;52.20
30244;DHT22;64022;53.652;9.792;2024-03-02T10:25:36;21.80;52.30
30244;DHT22;64022;53.652;9.792;2024-03-02T10:28:04;21.80;52.30
30244;DHT22;64022;53.652;9.792;2024-03-02T10:30:33;21.80;52.40
30244;DHT22;64022;53.652;9.792;2024-03-02T10:33:02;21.80;52.40
30244;DHT22;64022;53.652;9.792;2024-03-02T10:35:28;21.80;52.40
30244;DHT22;64022;53.652;9.792;2024-03-02T10:37:54;21.90;52.40
30244;DHT22;64022;53.652;9.792;2024-03-02T10:40:21;21.80;52.40
30244;DHT22;64022;53.652;9.792;2024-03-02T10:42:47;21.90;52.40
30244;DHT22;64022;53.652;9.792;2024-03-02T10:45:16;21.90;52.40
30244;DHT22;64022;53.652;9.792;2024-03-02T10:47:44;21.90;52.40
30244;DHT22;64022;53.652;9.792;2024-03-02T10:50:13;21.90;52.40
30244;DHT22;64022;53.652;9.792;2024-03-02T10:52:41;21.90;52.40
30244;DHT22;64022;53.652;9.792;2024-03-02T10:55:11;21.90;52.40
30244;DHT22;64022;53.652;9.792;2024-03-02T10:57:42;21.90;52.40
30244;DHT22;64022;53.652;9.792;2024-03-02T11:00:11;21.90;52.40
30244;DHT22;64022;53.652;9.792;2024-03-02T11:02:46;21.90;52.40
30244;DHT22;64022;53.652;9.792;2024-03-02T11:05:14;22.00;52.50
30244;DHT22;64022;53.652;9.792;2024-03-02T11:07:44;22.00;52.50
30244;DHT22;64022;53.652;9.792;2024-03-02T11:10:10;22.00;52.50
30244;DHT22;64022;53.652;9.792;2024-03-02T11:12:38;22.00;52.50
30244;DHT22;64022;53.652;9.792;2024-03-02T11:15:07;21.90;52.40
30244;DHT22;64022;53.652;9.792;2024-03-02T11:17:35;22.00;52.50
30244;DHT22;64022;53.652;9.792;2024-03-02T11:20:03;21.90;52.40
30244;DHT22;64022;53.652;9.792;2024-03-02T11:22:36;21.90;52.40
30244;DHT22;64022;53.652;9.792;2024-03-02T11:25:02;21.90;52.40
30244;DHT22;64022;53.652;9.792;2024-03-02T11:33:03;22.00;52.50
30244;DHT22;64022;53.652;9.792;2024-03-02T11:35:38;22.00;52.50
30244;DHT22;64022;53.652;9.792;2024-03-02T11:38:06;21.90;52.50
30244;DHT22;64022;53.652;9.792;2024-03-02T11:40:32;21.90;52.50
30244;DHT22;64022;53.652;9.792;2024-03-02T11:43:01;22.00;52.50
30244;DHT22;64022;53.652;9.792;2024-03-02T11:45:28;22.00;52.60
30244;DHT22;64022;53.652;9.792;2024-03-02T11:47:55;21.90;52.50
30244;DHT22;64022;53.652;9.792;2024-03-02T11:53:09;21.90;52.50
30244;DHT22;64022;53.652;9.792;2024-03-02T11:55:37;21.90;52.50
30244;DHT22;64022;53.652;9.792;2024-03-02T11:58:06;22.00;52.60
30244;DHT22;64022;53.652;9.792;2024-03-02T12:00:33;22.00;52.60
30244;DHT22;64022;53.652;9.792;2024-03-02T12:03:00;21.90;52.50
30244;DHT22;64022;53.652;9.792;2024-03-02T12:05:34;22.00;52.60
30244;DHT22;64022;53.652;9.792;2024-03-02T12:08:04;21.90;52.60
30244;DHT22;64022;53.652;9.792;2024-03-02T12:10:32;22.00;52.60
30244;DHT22;64022;53.652;9.792;2024-03-02T12:13:02;21.90;52.60
30244;DHT22;64022;53.652;9.792;2024-03-02T12:15:35;22.00;52.60
30244;DHT22;64022;53.652;9.792;2024-03-02T12:18:03;22.00;52.70
30244;DHT22;64022;53.652;9.792;2024-03-02T12:20:31;22.00;52.70
30244;DHT22;64022;53.652;9.792;2024-03-02T12:22:58;22.00;52.70
30244;DHT22;64022;53.652;9.792;2024-03-02T12:25:25;22.00;52.70
30244;DHT22;64022;53.652;9.792;2024-03-02T12:27:54;22.00;52.70
30244;DHT22;64022;53.652;9.792;2024-03-02T12:30:20;21.90;52.60
30244;DHT22;64022;53.652;9.792;2024-03-02T12:32:47;22.00;52.70
30244;DHT22;64022;53.652;9.792;2024-03-02T12:35:15;22.00;52.70
30244;DHT22;64022;53.652;9.792;2024-03-02T12:37:45;22.00;52.70
30244;DHT22;64022;53.652;9.792;2024-03-02T12:40:12;22.00;52.70
30244;DHT22;64022;53.652;9.792;2024-03-02T12:42:38;22.00;52.70
30244;DHT22;64022;53.652;9.792;2024-03-02T12:45:06;22.00;52.70
30244;DHT22;64022;53.652;9.792;2024-03-02T12:47:33;22.00;52.70
30244;DHT22;64022;53.652;9.792;2024-03-02T12:49:59;22.00;52.70
30244;DHT22;64022;53.652;9.792;2024-03-02T12:52:25;22.00;52.70
30244;DHT22;64022;53.652;9.792;2024-03-02T12:54:52;22.00;52.70
30244;DHT22;64022;53.652;9.792;2024-03-02T12:57:18;21.90;52.70
30244;DHT22;64022;53.652;9.792;2024-03-02T12:59:45;21.90;52.70
30244;DHT22;64022;53.652;9.792;2024-03-02T13:02:17;22.00;52.80
30244;DHT22;64022;53.652;9.792;2024-03-02T13:04:52;21.90;52.70
30244;DHT22;64022;53.652;9.792;2024-03-02T13:07:18;22.00;52.80
30244;DHT22;64022;53.652;9.792;2024-03-02T13:09:45;22.00;52.80
30244;DHT22;64022;53.652;9.792;2024-03-02T13:12:11;22.00;52.80
30244;DHT22;64022;53.652;9.792;2024-03-02T13:14:40;22.00;52.80
30244;DHT22;64022;53.652;9.792;2024-03-02T13:17:08;21.90;52.80
30244;DHT22;64022;53.652;9.792;2024-03-02T13:19:35;21.90;52.80
30244;DHT22;64022;53.652;9.792;2024-03-02T13:22:01;21.90;52.80
30244;DHT22;64022;53.652;9.792;2024-03-02T13:24:31;21.90;52.80
30244;DHT22;64022;53.652;9.792;2024-03-02T13:26:59;21.90;52.80
30244;DHT22;64022;53.652;9.792;2024-03-02T13:29:27;21.90;52.80
30244;DHT22;64022;53.652;9.792;2024-03-02T13:31:54;22.00;52.90
30244;DHT22;64022;53.652;9.792;2024-03-02T13:34:20;22.00;52.90
30244;DHT22;64022;53.652;9.792;2024-03-02T13:36:46;22.00;52.90
30244;DHT22;64022;53.652;9.792;2024-03-02T13:39:12;22.00;52.90
30244;DHT22;64022;53.652;9.792;2024-03-02T13:41:40;21.90;52.90
30244;DHT22;64022;53.652;9.792;2024-03-02T13:44:10;22.00;52.90
30244;DHT22;64022;53.652;9.792;2024-03-02T13:46:37;21.90;52.90
30244;DHT22;64022;53.652;9.792;2024-03-02T13:49:02;22.00;52.90
30244;DHT22;64022;53.652;9.792;2024-03-02T13:51:29;21.90;52.90
30244;DHT22;64022;53.652;9.792;2024-03-02T13:53:57;21.90;52.90
30244;DHT22;64022;53.652;9.792;2024-03-02T13:56:23;22.00;52.90
30244;DHT22;64022;53.652;9.792;2024-03-02T13:58:50;21.90;52.90
30244;DHT22;64022;53.652;9.792;2024-03-02T14:01:16;22.00;53.00
30244;DHT22;64022;53.652;9.792;2024-03-02T14:03:42;21.90;52.90
30244;DHT22;64022;53.652;9.792;2024-03-02T14:06:08;22.00;53.00
30244;DHT22;64022;53.652;9.792;2024-03-02T14:08:35;21.90;52.90
30244;DHT22;64022;53.652;9.792;2024-03-02T14:11:01;21.90;52.90
30244;DHT22;64022;53.652;9.792;2024-03-02T14:13:28;21.90;53.00
30244;DHT22;64022;53.652;9.792;2024-03-02T14:15:54;22.00;53.00
30244;DHT22;64022;53.652;9.792;2024-03-02T14:18:25;21.90;53.00
30244;DHT22;64022;53.652;9.792;2024-03-02T14:20:51;22.00;53.00
30244;DHT22;64022;53.652;9.792;2024-03-02T14:23:18;21.90;53.00
30244;DHT22;64022;53.652;9.792;2024-03-02T14:25:47;22.00;53.00
30244;DHT22;64022;53.652;9.792;2024-03-02T14:28:13;21.90;53.00
30244;DHT22;64022;53.652;9.792;2024-03-02T14:30:43;21.90;53.00
30244;DHT22;64022;53.652;9.792;2024-03-02T14:33:09;22.00;53.00
30244;DHT22;64022;53.652;9.792;2024-03-02T14:35:37;22.00;53.00
30244;DHT22;64022;53.652;9.792;2024-03-02T14:38:03;21.90;53.00
30244;DHT22;64022;53.652;9.792;2024-03-02T14:40:37;22.00;53.10
30244;DHT22;64022;53.652;9.792;2024-03-02T14:43:04;22.00;53.10
30244;DHT22;64022;53.652;9.792;2024-03-02T14:45:30;21.90;53.00
30244;DHT22;64022;53.652;9.792;2024-03-02T14:47:57;21.90;52.80
30244;DHT22;64022;53.652;9.792;2024-03-02T14:50:27;21.90;52.30
30244;DHT22;64022;53.652;9.792;2024-03-02T14:52:54;21.80;51.90
30244;DHT22;64022;53.652;9.792;2024-03-02T14:55:23;21.80;52.00
30244;DHT22;64022;53.652;9.792;2024-03-02T14:57:49;21.80;52.10
30244;DHT22;64022;53.652;9.792;2024-03-02T15:00:15;21.80;52.10
30244;DHT22;64022;53.652;9.792;2024-03-02T15:02:43;21.80;52.20
30244;DHT22;64022;53.652;9.792;2024-03-02T15:05:11;21.80;52.20
30244;DHT22;64022;53.652;9.792;2024-03-02T15:07:37;21.90;52.30
30244;DHT22;64022;53.652;9.792;2024-03-02T15:10:04;21.90;52.30
30244;DHT22;64022;53.652;9.792;2024-03-02T15:12:32;21.90;52.60
30244;DHT22;64022;53.652;9.792;2024-03-02T15:14:58;21.90;52.30
30244;DHT22;64022;53.652;9.792;2024-03-02T15:17:26;21.90;52.40
30244;DHT22;64022;53.652;9.792;2024-03-02T15:19:53;21.90;52.40
30244;DHT22;64022;53.652;9.792;2024-03-02T15:22:19;21.80;52.40
30244;DHT22;64022;53.652;9.792;2024-03-02T15:24:46;21.80;52.40
30244;DHT22;64022;53.652;9.792;2024-03-02T15:27:12;21.90;52.40
30244;DHT22;64022;53.652;9.792;2024-03-02T15:29:39;21.90;52.40
30244;DHT22;64022;53.652;9.792;2024-03-02T15:32:07;21.90;52.40
30244;DHT22;64022;53.652;9.792;2024-03-02T15:34:33;21.90;52.50
30244;DHT22;64022;53.652;9.792;2024-03-02T15:37:00;21.90;52.50
30244;DHT22;64022;53.652;9.792;2024-03-02T15:39:26;21.90;52.50